createdAt,value
2022-07-29T00:01:19.374Z,14.90
2022-07-29T00:05:01.954Z,14.80
2022-07-29T00:08:43.709Z,14.70
2022-07-29T00:12:26.095Z,14.60
2022-07-29T00:16:08.678Z,14.40
2022-07-29T00:19:50.538Z,14.30
2022-07-29T00:23:36.482Z,14.20
2022-07-29T00:27:19.064Z,14.10
2022-07-29T00:31:01.907Z,13.90
2022-07-29T00:35:02.351Z,13.80
2022-07-29T00:38:46.214Z,13.70
2022-07-29T00:42:28.514Z,13.60
2022-07-29T00:46:10.556Z,13.40
2022-07-29T00:49:52.382Z,13.30
2022-07-29T00:53:37.103Z,13.20
2022-07-29T00:57:19.127Z,13.10
2022-07-29T01:01:01.030Z,13.00
2022-07-29T01:04:42.870Z,12.80
2022-07-29T01:08:24.756Z,12.70
2022-07-29T01:12:06.917Z,12.70
2022-07-29T01:15:57.919Z,12.60
2022-07-29T01:19:47.870Z,12.60
2022-07-29T01:23:48.029Z,12.50
2022-07-29T01:27:39.842Z,12.40
2022-07-29T01:31:43.744Z,12.40
2022-07-29T01:35:40.913Z,12.30
2022-07-29T01:39:27.229Z,12.30
2022-07-29T01:43:14.155Z,12.20
2022-07-29T01:46:58.693Z,12.30
2022-07-29T01:50:54.223Z,12.30
2022-07-29T01:54:43.867Z,12.30
2022-07-29T01:58:29.354Z,12.30
2022-07-29T02:02:11.411Z,12.30
2022-07-29T02:05:53.275Z,12.30
2022-07-29T02:09:36.790Z,12.30
2022-07-29T02:13:18.584Z,12.30
2022-07-29T02:17:00.439Z,12.30
2022-07-29T02:20:43.909Z,12.30
2022-07-29T02:24:26.051Z,12.30
2022-07-29T02:28:08.097Z,12.30
2022-07-29T02:31:50.525Z,12.30
2022-07-29T02:35:34.837Z,12.40
2022-07-29T02:39:16.883Z,12.40
2022-07-29T02:42:58.668Z,12.50
2022-07-29T02:47:03.576Z,12.50
2022-07-29T02:50:49.331Z,12.60
2022-07-29T02:54:55.249Z,12.60
2022-07-29T02:58:47.982Z,12.60
2022-07-29T03:02:29.788Z,12.70
2022-07-29T03:06:28.150Z,12.70
2022-07-29T03:10:17.203Z,12.70
2022-07-29T03:13:59.014Z,12.70
2022-07-29T03:17:40.906Z,12.70
2022-07-29T03:21:22.691Z,12.60
2022-07-29T03:25:14.665Z,12.60
2022-07-29T03:28:56.758Z,12.50
2022-07-29T03:32:38.891Z,12.50
2022-07-29T03:36:21.894Z,12.50
2022-07-29T03:40:06.229Z,12.40
2022-07-29T03:43:49.467Z,12.40
2022-07-29T03:47:49.940Z,12.40
2022-07-29T03:51:34.375Z,12.40
2022-07-29T03:55:16.318Z,12.30
2022-07-29T03:58:58.187Z,12.30
2022-07-29T04:02:40.321Z,12.30
2022-07-29T04:06:22.221Z,12.20
2022-07-29T04:10:04.206Z,12.20
2022-07-29T04:13:45.965Z,12.20
2022-07-29T04:17:27.780Z,12.20
2022-07-29T04:21:09.625Z,12.10
2022-07-29T04:24:51.496Z,12.10
2022-07-29T04:28:33.316Z,12.10
2022-07-29T04:32:15.103Z,12.10
2022-07-29T04:35:56.914Z,12.00
2022-07-29T04:39:38.708Z,12.00
2022-07-29T04:43:23.153Z,12.00
2022-07-29T04:47:05.674Z,12.00
2022-07-29T04:50:47.463Z,12.00
2022-07-29T04:54:29.272Z,12.00
2022-07-29T04:58:11.141Z,12.00
2022-07-29T05:01:53.058Z,12.00
2022-07-29T05:05:34.976Z,12.00
2022-07-29T05:09:16.801Z,12.00
2022-07-29T05:12:58.573Z,12.00
2022-07-29T05:16:41.209Z,12.00
2022-07-29T05:20:27.343Z,12.00
2022-07-29T05:24:09.211Z,11.90
2022-07-29T05:27:51.112Z,12.00
2022-07-29T05:31:34.431Z,12.10
2022-07-29T05:35:16.586Z,12.20
2022-07-29T05:38:58.644Z,12.30
2022-07-29T05:42:40.399Z,12.50
2022-07-29T05:46:22.314Z,12.60
2022-07-29T05:50:05.310Z,12.80
2022-07-29T05:53:47.091Z,12.80
2022-07-29T05:57:28.874Z,12.80
2022-07-29T06:01:10.676Z,12.90
2022-07-29T06:04:52.595Z,12.90
2022-07-29T06:08:34.925Z,13.00
2022-07-29T06:12:16.810Z,13.10
2022-07-29T06:16:07.978Z,13.20
2022-07-29T06:19:49.961Z,13.40
2022-07-29T06:23:31.767Z,13.50
2022-07-29T06:27:13.517Z,13.60
2022-07-29T06:30:55.384Z,13.80
2022-07-29T06:34:37.342Z,13.90
2022-07-29T06:38:31.095Z,14.10
2022-07-29T06:42:15.674Z,14.20
2022-07-29T06:45:57.626Z,14.40
2022-07-29T06:49:39.694Z,14.50
2022-07-29T06:53:21.558Z,14.70
2022-07-29T06:57:03.420Z,14.80
2022-07-29T07:00:46.052Z,14.90
2022-07-29T07:04:27.816Z,15.10
2022-07-29T07:08:09.643Z,15.30
2022-07-29T07:11:51.435Z,15.40
2022-07-29T07:15:38.974Z,15.60
2022-07-29T07:19:21.761Z,15.70
2022-07-29T07:23:03.611Z,15.90
2022-07-29T07:26:45.429Z,16.10
2022-07-29T07:30:28.177Z,16.20
2022-07-29T07:34:10.304Z,16.40
2022-07-29T07:37:52.116Z,16.70
2022-07-29T07:41:33.898Z,17.40
2022-07-29T07:45:16.600Z,18.30
2022-07-29T07:48:58.645Z,19.40
2022-07-29T07:52:54.091Z,20.40
2022-07-29T07:56:35.840Z,21.50
2022-07-29T08:00:17.920Z,22.40
2022-07-29T08:03:59.722Z,23.30
2022-07-29T08:07:42.586Z,24.00
2022-07-29T08:11:24.488Z,24.90
2022-07-29T08:15:08.621Z,25.60
2022-07-29T08:18:50.486Z,26.30
2022-07-29T08:22:32.421Z,26.70
2022-07-29T08:26:14.459Z,27.30
2022-07-29T08:29:56.915Z,27.70
2022-07-29T08:33:38.723Z,28.10
2022-07-29T08:37:20.482Z,28.60
2022-07-29T08:41:03.659Z,29.00
2022-07-29T08:44:45.492Z,29.30
2022-07-29T08:48:27.254Z,29.90
2022-07-29T08:52:11.220Z,30.70
2022-07-29T08:55:53.016Z,31.50
2022-07-29T08:59:34.826Z,32.20
2022-07-29T09:03:19.860Z,32.50
2022-07-29T09:07:02.197Z,33.00
2022-07-29T09:10:44.509Z,33.10
2022-07-29T09:14:26.333Z,33.40
2022-07-29T09:18:08.171Z,34.00
2022-07-29T09:22:04.056Z,34.80
2022-07-29T09:25:45.992Z,35.20
2022-07-29T09:29:31.169Z,35.90
2022-07-29T09:33:16.222Z,36.40
2022-07-29T09:36:58.548Z,36.80
2022-07-29T09:40:41.077Z,37.20
2022-07-29T09:44:23.337Z,37.40
2022-07-29T09:48:15.678Z,37.70
2022-07-29T09:52:04.881Z,38.20
2022-07-29T09:55:51.592Z,38.60
2022-07-29T09:59:34.049Z,39.00
2022-07-29T10:03:16.700Z,39.00
2022-07-29T10:07:05.070Z,39.20
2022-07-29T10:10:47.141Z,39.40
2022-07-29T10:14:28.971Z,39.50
2022-07-29T10:18:14.439Z,39.60
2022-07-29T10:21:58.219Z,39.40
2022-07-29T10:25:45.505Z,40.20
2022-07-29T10:29:28.160Z,41.00
2022-07-29T10:33:28.029Z,41.40
2022-07-29T10:37:35.367Z,41.80
2022-07-29T10:41:32.453Z,42.30
2022-07-29T10:45:25.563Z,42.60
2022-07-29T10:49:24.852Z,42.70
2022-07-29T10:53:07.039Z,42.70
2022-07-29T10:56:50.812Z,43.10
2022-07-29T11:00:35.723Z,43.90
2022-07-29T11:04:42.005Z,44.50
2022-07-29T11:08:26.018Z,44.30
2022-07-29T11:12:37.021Z,44.60
2022-07-29T11:16:21.325Z,45.00
2022-07-29T11:20:32.028Z,45.70
2022-07-29T11:24:29.189Z,46.50
2022-07-29T11:28:23.036Z,46.80
2022-07-29T11:32:22.674Z,46.30
2022-07-29T11:36:16.708Z,45.70
2022-07-29T11:40:02.227Z,44.70
2022-07-29T11:43:50.783Z,44.80
2022-07-29T11:47:39.500Z,45.70
2022-07-29T11:51:21.515Z,46.70
2022-07-29T11:55:23.507Z,47.00
2022-07-29T11:59:15.266Z,46.80
2022-07-29T12:02:57.990Z,47.00
2022-07-29T12:06:48.721Z,47.50
2022-07-29T12:10:33.820Z,47.50
2022-07-29T12:14:28.697Z,47.60
2022-07-29T12:18:11.888Z,48.00
2022-07-29T12:21:56.642Z,48.10
2022-07-29T12:25:42.998Z,47.60
2022-07-29T12:29:35.567Z,47.60
2022-07-29T12:33:20.555Z,48.60
2022-07-29T12:37:02.361Z,49.90
2022-07-29T12:40:44.719Z,50.30
2022-07-29T12:44:30.105Z,49.80
2022-07-29T12:48:12.019Z,49.60
2022-07-29T12:51:54.661Z,49.70
2022-07-29T12:55:52.265Z,50.30
2022-07-29T12:59:34.079Z,51.10
2022-07-29T13:03:20.254Z,50.80
2022-07-29T13:07:04.550Z,49.40
2022-07-29T13:10:47.023Z,48.70
2022-07-29T13:14:35.338Z,48.50
2022-07-29T13:18:30.987Z,48.10
2022-07-29T13:22:20.623Z,47.70
2022-07-29T13:26:17.169Z,47.20
2022-07-29T13:30:00.458Z,46.60
2022-07-29T13:33:42.325Z,46.90
2022-07-29T13:37:24.116Z,47.60
2022-07-29T13:41:05.958Z,48.90
2022-07-29T13:44:49.639Z,49.30
2022-07-29T13:48:31.530Z,49.10
2022-07-29T13:52:13.354Z,48.60
2022-07-29T13:55:55.971Z,48.50
2022-07-29T13:59:37.771Z,48.30
2022-07-29T14:03:19.548Z,48.30
2022-07-29T14:07:03.685Z,48.50
2022-07-29T14:10:46.081Z,49.40
2022-07-29T14:14:27.937Z,50.00
2022-07-29T14:18:09.774Z,48.80
2022-07-29T14:21:51.577Z,48.50
2022-07-29T14:25:33.475Z,47.90
2022-07-29T14:29:15.395Z,47.80
2022-07-29T14:32:57.226Z,47.70
2022-07-29T14:36:39.199Z,47.30
2022-07-29T14:40:21.027Z,46.10
2022-07-29T14:44:02.928Z,45.00
2022-07-29T14:47:44.677Z,44.70
2022-07-29T14:51:32.484Z,44.60
2022-07-29T14:55:16.593Z,43.80
2022-07-29T14:59:01.977Z,43.70
2022-07-29T15:03:00.903Z,43.00
2022-07-29T15:06:44.081Z,41.70
2022-07-29T15:10:27.971Z,40.00
2022-07-29T15:14:09.913Z,38.50
2022-07-29T15:17:51.707Z,39.00
2022-07-29T15:21:33.564Z,41.40
2022-07-29T15:25:15.366Z,43.90
2022-07-29T15:28:57.135Z,44.20
2022-07-29T15:32:38.920Z,43.30
2022-07-29T15:36:50.141Z,42.40
2022-07-29T15:40:22.711Z,42.40
2022-07-29T15:44:04.708Z,43.50
2022-07-29T15:47:46.536Z,42.10
2022-07-29T15:51:28.405Z,39.90
2022-07-29T15:55:10.326Z,37.80
2022-07-29T15:58:52.138Z,36.20
2022-07-29T16:02:34.042Z,36.20
2022-07-29T16:06:16.627Z,36.40
2022-07-29T16:09:58.439Z,36.00
2022-07-29T16:13:40.466Z,34.80
2022-07-29T16:17:22.369Z,33.70
2022-07-29T16:21:04.165Z,32.90
2022-07-29T16:24:45.991Z,32.00
2022-07-29T16:28:28.717Z,31.40
2022-07-29T16:32:10.648Z,31.10
2022-07-29T16:35:52.589Z,30.60
2022-07-29T16:39:34.394Z,30.30
2022-07-29T16:43:16.254Z,30.00
2022-07-29T16:46:59.698Z,29.70
2022-07-29T16:50:43.317Z,29.60
2022-07-29T16:54:25.541Z,29.70
2022-07-29T16:58:07.400Z,29.80
2022-07-29T17:01:49.315Z,29.50
2022-07-29T17:05:52.373Z,29.30
2022-07-29T17:09:33.134Z,29.20
2022-07-29T17:13:15.023Z,29.10
2022-07-29T17:17:01.370Z,29.00
2022-07-29T17:20:43.618Z,29.10
2022-07-29T17:24:25.409Z,29.20
2022-07-29T17:28:07.236Z,29.10
2022-07-29T17:31:49.058Z,28.90
2022-07-29T17:35:49.297Z,28.70
2022-07-29T17:39:31.071Z,28.60
2022-07-29T17:43:12.869Z,28.70
2022-07-29T17:46:54.939Z,28.80
2022-07-29T17:50:36.861Z,29.10
2022-07-29T17:54:18.716Z,29.10
2022-07-29T17:58:00.497Z,29.00
2022-07-29T18:01:42.384Z,28.60
2022-07-29T18:05:24.217Z,28.20
2022-07-29T18:09:06.084Z,27.90
2022-07-29T18:12:48.009Z,27.70
2022-07-29T18:16:29.861Z,27.40
2022-07-29T18:20:11.892Z,27.10
2022-07-29T18:23:53.667Z,26.70
2022-07-29T18:27:35.437Z,26.40
2022-07-29T18:31:17.300Z,26.10
2022-07-29T18:35:02.716Z,25.90
2022-07-29T18:38:44.673Z,25.70
2022-07-29T18:42:26.435Z,25.50
2022-07-29T18:46:08.335Z,25.30
2022-07-29T18:49:50.190Z,25.20
2022-07-29T18:53:32.196Z,25.00
2022-07-29T18:57:55.077Z,25.00
2022-07-29T19:01:20.666Z,25.00
2022-07-29T19:05:02.499Z,24.90
2022-07-29T19:08:44.369Z,24.90
2022-07-29T19:12:26.609Z,24.80
2022-07-29T19:16:11.916Z,24.70
2022-07-29T19:19:53.931Z,24.60
2022-07-29T19:24:01.489Z,24.40
2022-07-29T19:27:37.692Z,24.20
2022-07-29T19:31:19.561Z,24.00
2022-07-29T19:35:19.790Z,23.80
2022-07-29T19:39:01.761Z,23.70
2022-07-29T19:42:43.914Z,23.50
2022-07-29T19:46:28.733Z,23.40
2022-07-29T19:50:10.679Z,23.30
2022-07-29T19:53:52.562Z,23.20
2022-07-29T19:57:40.761Z,23.10
2022-07-29T20:01:24.676Z,22.90
2022-07-29T20:05:07.222Z,22.80
2022-07-29T20:08:49.512Z,22.60
2022-07-29T20:12:31.320Z,22.40
2022-07-29T20:16:13.248Z,22.30
2022-07-29T20:19:56.341Z,22.10
2022-07-29T20:23:38.186Z,21.90
2022-07-29T20:27:20.022Z,21.70
2022-07-29T20:31:01.901Z,21.60
2022-07-29T20:34:43.735Z,21.40
2022-07-29T20:38:25.522Z,21.30
2022-07-29T20:42:07.494Z,21.20
2022-07-29T20:45:49.410Z,21.00
2022-07-29T20:49:31.276Z,20.90
2022-07-29T20:53:13.582Z,20.80
2022-07-29T20:56:55.374Z,20.60
2022-07-29T21:00:37.466Z,20.50
2022-07-29T21:04:19.354Z,20.40
2022-07-29T21:08:01.194Z,20.30
2022-07-29T21:11:44.443Z,20.20
2022-07-29T21:15:28.511Z,20.00
2022-07-29T21:19:10.320Z,19.90
2022-07-29T21:22:55.446Z,19.80
2022-07-29T21:26:37.267Z,19.70
2022-07-29T21:30:19.258Z,19.60
2022-07-29T21:34:01.091Z,19.50
2022-07-29T21:37:42.893Z,19.40
2022-07-29T21:41:24.774Z,19.20
2022-07-29T21:45:06.972Z,19.20
2022-07-29T21:48:48.832Z,19.00
2022-07-29T21:52:30.678Z,19.00
2022-07-29T21:56:14.563Z,18.80
2022-07-29T22:00:02.155Z,18.70
2022-07-29T22:03:44.643Z,18.60
2022-07-29T22:07:54.514Z,18.50
2022-07-29T22:11:28.323Z,18.40
2022-07-29T22:15:10.560Z,18.30
2022-07-29T22:18:52.870Z,18.20
2022-07-29T22:22:35.591Z,18.10
2022-07-29T22:26:17.488Z,17.90
2022-07-29T22:29:59.611Z,17.80
2022-07-29T22:33:41.990Z,17.80
2022-07-29T22:37:24.373Z,17.70
2022-07-29T22:41:06.345Z,17.50
2022-07-29T22:44:48.140Z,17.40
2022-07-29T22:48:29.997Z,17.40
2022-07-29T22:52:11.846Z,17.30
2022-07-29T22:55:56.509Z,17.20
2022-07-29T22:59:38.380Z,17.20
2022-07-29T23:03:21.047Z,17.10
2022-07-29T23:07:03.091Z,17.00
2022-07-29T23:10:45.276Z,17.00
2022-07-29T23:14:27.049Z,16.90
2022-07-29T23:18:09.036Z,16.80
2022-07-29T23:21:50.825Z,16.80
2022-07-29T23:25:32.663Z,16.70
2022-07-29T23:29:14.501Z,16.60
2022-07-29T23:32:56.346Z,16.60
2022-07-29T23:36:38.174Z,16.50
2022-07-29T23:40:19.986Z,16.50
2022-07-29T23:44:01.754Z,16.40
2022-07-29T23:47:43.670Z,16.30
2022-07-29T23:51:25.989Z,16.30
2022-07-29T23:55:37.546Z,16.20
2022-07-29T23:59:10.733Z,16.10
